sensor_id;sensor_type;location;lat;lon;timestamp;pressure;altitude;pressure_sealevel;temperature;humidity
76434;BME280;65265;53.200;6.080;2024-03-02T00:00:16;99892.31;;;7.50;100.00
76434;BME280;65265;53.200;6.080;2024-03-02T00:05:11;99891.34;;;7.48;100.00
76434;BME280;65265;53.200;6.080;2024-03-02T00:10:08;99881.31;;;7.51;100.00
76434;BME280;65265;53.200;6.080;2024-03-02T00:15:00;99877.72;;;7.46;100.00
76434;BME280;65265;53.200;6.080;2024-03-02T00:19:54;99874.50;;;7.50;100.00
76434;BME280;65265;53.200;6.080;2024-03-02T00:24:46;99871.94;;;7.50;100.00
76434;BME280;65265;53.200;6.080;2024-03-02T00:29:37;99876.22;;;7.51;100.00
76434;BME280;65265;53.200;6.080;2024-03-02T00:34:29;99873.78;;;7.54;100.00
76434;BME280;65265;53.200;6.080;2024-03-02T00:39:22;99882.22;;;7.53;100.00
76434;BME280;65265;53.200;6.080;2024-03-02T00:44:15;99876.38;;;7.55;100.00
76434;BME280;65265;53.200;6.080;2024-03-02T00:49:12;99867.13;;;7.57;100.00
76434;BME280;65265;53.200;6.080;2024-03-02T00:54:07;99864.53;;;7.56;100.00
76434;BME280;65265;53.200;6.080;2024-03-02T00:59:00;99848.59;;;7.61;100.00
76434;BME280;65265;53.200;6.080;2024-03-02T01:03:52;99837.41;;;7.56;100.00
76434;BME280;65265;53.200;6.080;2024-03-02T01:08:45;99838.38;;;7.60;100.00
76434;BME280;65265;53.200;6.080;2024-03-02T01:13:37;99828.34;;;7.64;100.00
76434;BME280;65265;53.200;6.080;2024-03-02T01:18:30;99831.38;;;7.54;100.00
76434;BME280;65265;53.200;6.080;2024-03-02T01:23:22;99827.53;;;7.65;100.00
76434;BME280;65265;53.200;6.080;2024-03-02T01:28:14;99840.25;;;7.65;100.00
76434;BME280;65265;53.200;6.080;2024-03-02T01:33:06;99821.91;;;7.74;100.00
76434;BME280;65265;53.200;6.080;2024-03-02T01:37:59;99828.94;;;7.81;100.00
76434;BME280;65265;53.200;6.080;2024-03-02T01:42:50;99825.53;;;7.80;100.00
76434;BME280;65265;53.200;6.080;2024-03-02T01:47:42;99835.91;;;7.86;100.00
76434;BME280;65265;53.200;6.080;2024-03-02T01:52:33;99818.31;;;7.92;100.00
76434;BME280;65265;53.200;6.080;2024-03-02T01:57:26;99820.28;;;8.01;100.00
76434;BME280;65265;53.200;6.080;2024-03-02T02:02:18;99814.88;;;7.92;100.00
76434;BME280;65265;53.200;6.080;2024-03-02T02:07:10;99829.47;;;7.96;100.00
76434;BME280;65265;53.200;6.080;2024-03-02T02:12:02;99818.34;;;7.94;100.00
76434;BME280;65265;53.200;6.080;2024-03-02T02:16:58;99818.00;;;8.08;100.00
76434;BME280;65265;53.200;6.080;2024-03-02T02:21:51;99825.53;;;8.05;100.00
76434;BME280;65265;53.200;6.080;2024-03-02T02:26:42;99828.31;;;8.11;100.00
76434;BME280;65265;53.200;6.080;2024-03-02T02:31:37;99832.59;;;8.14;100.00
76434;BME280;65265;53.200;6.080;2024-03-02T02:36:29;99834.34;;;8.15;100.00
76434;BME280;65265;53.200;6.080;2024-03-02T02:41:22;99834.97;;;8.08;100.00
76434;BME280;65265;53.200;6.080;2024-03-02T02:46:13;99833.50;;;8.16;100.00
76434;BME280;65265;53.200;6.080;2024-03-02T02:51:05;99820.53;;;8.08;100.00
76434;BME280;65265;53.200;6.080;2024-03-02T02:55:56;99829.91;;;8.09;100.00
76434;BME280;65265;53.200;6.080;2024-03-02T03:00:49;99816.56;;;8.16;100.00
76434;BME280;65265;53.200;6.080;2024-03-02T03:05:41;99804.59;;;8.14;100.00
76434;BME280;65265;53.200;6.080;2024-03-02T03:10:32;99791.69;;;8.08;100.00
76434;BME280;65265;53.200;6.080;2024-03-02T03:15:24;99786.28;;;7.99;100.00
76434;BME280;65265;53.200;6.080;2024-03-02T03:20:17;99784.34;;;7.92;100.00
76434;BME280;65265;53.200;6.080;2024-03-02T03:25:08;99779.16;;;7.89;100.00
76434;BME280;65265;53.200;6.080;2024-03-02T03:30:00;99780.47;;;7.78;100.00
76434;BME280;65265;53.200;6.080;2024-03-02T03:34:51;99800.09;;;7.80;100.00
76434;BME280;65265;53.200;6.080;2024-03-02T03:39:44;99810.13;;;7.77;100.00
76434;BME280;65265;53.200;6.080;2024-03-02T03:44:36;99818.44;;;7.72;100.00
76434;BME280;65265;53.200;6.080;2024-03-02T03:49:29;99827.69;;;7.70;100.00
76434;BME280;65265;53.200;6.080;2024-03-02T03:54:20;99829.13;;;7.62;100.00
76434;BME280;65265;53.200;6.080;2024-03-02T03:59:13;99837.78;;;7.67;100.00
76434;BME280;65265;53.200;6.080;2024-03-02T04:04:05;99842.53;;;7.58;100.00
76434;BME280;65265;53.200;6.080;2024-03-02T04:08:57;99847.63;;;7.58;100.00
76434;BME280;65265;53.200;6.080;2024-03-02T04:13:48;99863.38;;;7.48;100.00
76434;BME280;65265;53.200;6.080;2024-03-02T04:18:41;99861.59;;;7.45;100.00
76434;BME280;65265;53.200;6.080;2024-03-02T04:23:32;99860.38;;;7.36;100.00
76434;BME280;65265;53.200;6.080;2024-03-02T04:28:24;99868.78;;;7.33;100.00
76434;BME280;65265;53.200;6.080;2024-03-02T04:33:15;99873.41;;;7.21;100.00
76434;BME280;65265;53.200;6.080;2024-03-02T04:38:08;99873.13;;;7.14;100.00
76434;BME280;65265;53.200;6.080;2024-03-02T04:43:00;99887.34;;;7.09;100.00
76434;BME280;65265;53.200;6.080;2024-03-02T04:47:51;99893.53;;;6.94;100.00
76434;BME280;65265;53.200;6.080;2024-03-02T04:52:43;99909.28;;;6.85;100.00
76434;BME280;65265;53.200;6.080;2024-03-02T04:57:36;99921.81;;;6.81;100.00
76434;BME280;65265;53.200;6.080;2024-03-02T05:02:27;99924.88;;;6.94;100.00
76434;BME280;65265;53.200;6.080;2024-03-02T05:07:19;99924.59;;;7.08;100.00
76434;BME280;65265;53.200;6.080;2024-03-02T05:12:10;99936.22;;;7.24;100.00
76434;BME280;65265;53.200;6.080;2024-03-02T05:17:21;99947.22;;;7.23;100.00
76434;BME280;65265;53.200;6.080;2024-03-02T05:22:12;99940.78;;;7.10;100.00
76434;BME280;65265;53.200;6.080;2024-03-02T05:27:04;99934.56;;;7.03;100.00
76434;BME280;65265;53.200;6.080;2024-03-02T05:31:56;99926.50;;;6.92;100.00
76434;BME280;65265;53.200;6.080;2024-03-02T05:36:49;99944.97;;;6.88;100.00
76434;BME280;65265;53.200;6.080;2024-03-02T05:41:41;99954.41;;;6.70;100.00
76434;BME280;65265;53.200;6.080;2024-03-02T05:46:32;99967.72;;;6.65;100.00
76434;BME280;65265;53.200;6.080;2024-03-02T05:51:24;99973.84;;;6.49;100.00
76434;BME280;65265;53.200;6.080;2024-03-02T05:56:17;99982.63;;;6.37;100.00
76434;BME280;65265;53.200;6.080;2024-03-02T06:01:08;99979.63;;;6.26;100.00
76434;BME280;65265;53.200;6.080;2024-03-02T06:06:00;99986.66;;;6.13;100.00
76434;BME280;65265;53.200;6.080;2024-03-02T06:10:51;99988.47;;;5.96;100.00
76434;BME280;65265;53.200;6.080;2024-03-02T06:15:44;99996.00;;;5.95;100.00
76434;BME280;65265;53.200;6.080;2024-03-02T06:20:36;100005.53;;;5.81;100.00
76434;BME280;65265;53.200;6.080;2024-03-02T06:25:27;100009.44;;;5.75;100.00
76434;BME280;65265;53.200;6.080;2024-03-02T06:30:18;100022.00;;;5.72;100.00
76434;BME280;65265;53.200;6.080;2024-03-02T06:35:12;100014.75;;;5.62;100.00
76434;BME280;65265;53.200;6.080;2024-03-02T06:40:04;100025.56;;;5.58;100.00
76434;BME280;65265;53.200;6.080;2024-03-02T06:44:57;100029.75;;;5.57;100.00
76434;BME280;65265;53.200;6.080;2024-03-02T06:49:49;100035.56;;;5.55;100.00
76434;BME280;65265;53.200;6.080;2024-03-02T06:54:42;100038.19;;;5.56;100.00
76434;BME280;65265;53.200;6.080;2024-03-02T06:59:33;100049.00;;;5.52;100.00
76434;BME280;65265;53.200;6.080;2024-03-02T07:04:25;100049.13;;;5.55;100.00
76434;BME280;65265;53.200;6.080;2024-03-02T07:09:16;100053.19;;;5.52;100.00
76434;BME280;65265;53.200;6.080;2024-03-02T07:14:09;100053.63;;;5.43;100.00
76434;BME280;65265;53.200;6.080;2024-03-02T07:19:01;100057.53;;;5.54;100.00
76434;BME280;65265;53.200;6.080;2024-03-02T07:23:53;100057.03;;;5.61;100.00
76434;BME280;65265;53.200;6.080;2024-03-02T07:28:45;100056.00;;;5.58;100.00
76434;BME280;65265;53.200;6.080;2024-03-02T07:33:39;100056.22;;;5.62;100.00
76434;BME280;65265;53.200;6.080;2024-03-02T07:38:31;100054.88;;;5.70;100.00
76434;BME280;65265;53.200;6.080;2024-03-02T07:43:23;100072.59;;;5.86;100.00
76434;BME280;65265;53.200;6.080;2024-03-02T07:48:15;100077.75;;;6.07;100.00
76434;BME280;65265;53.200;6.080;2024-03-02T07:53:09;100078.00;;;6.30;100.00
76434;BME280;65265;53.200;6.080;2024-03-02T07:58:01;100075.81;;;6.58;100.00
76434;BME280;65265;53.200;6.080;2024-03-02T08:02:53;100078.97;;;6.72;100.00
76434;BME280;65265;53.200;6.080;2024-03-02T08:07:45;100086.16;;;6.82;100.00
76434;BME280;65265;53.200;6.080;2024-03-02T08:12:39;100096.47;;;6.66;100.00
76434;BME280;65265;53.200;6.080;2024-03-02T08:17:30;100095.09;;;6.53;100.00
76434;BME280;65265;53.200;6.080;2024-03-02T08:22:22;100114.91;;;6.43;100.00
76434;BME280;65265;53.200;6.080;2024-03-02T08:27:15;100104.94;;;6.46;100.00
76434;BME280;65265;53.200;6.080;2024-03-02T08:32:08;100111.69;;;6.85;100.00
76434;BME280;65265;53.200;6.080;2024-03-02T08:37:00;100111.88;;;7.28;100.00
76434;BME280;65265;53.200;6.080;2024-03-02T08:41:51;100104.88;;;7.65;100.00
76434;BME280;65265;53.200;6.080;2024-03-02T08:46:43;100113.97;;;7.81;100.00
76434;BME280;65265;53.200;6.080;2024-03-02T08:51:36;100120.63;;;7.77;100.00
76434;BME280;65265;53.200;6.080;2024-03-02T08:56:28;100125.56;;;7.73;100.00
76434;BME280;65265;53.200;6.080;2024-03-02T09:01:20;100120.34;;;7.70;100.00
76434;BME280;65265;53.200;6.080;2024-03-02T09:06:11;100129.69;;;7.71;100.00
76434;BME280;65265;53.200;6.080;2024-03-02T09:11:06;100127.16;;;7.71;100.00
76434;BME280;65265;53.200;6.080;2024-03-02T09:15:58;100122.50;;;7.81;100.00
76434;BME280;65265;53.200;6.080;2024-03-02T09:20:49;100120.59;;;7.98;100.00
76434;BME280;65265;53.200;6.080;2024-03-02T09:25:41;100118.69;;;8.14;100.00
76434;BME280;65265;53.200;6.080;2024-03-02T09:30:34;100113.22;;;8.26;100.00
76434;BME280;65265;53.200;6.080;2024-03-02T09:35:25;100115.06;;;8.30;100.00
76434;BME280;65265;53.200;6.080;2024-03-02T09:40:17;100113.00;;;8.43;100.00
76434;BME280;65265;53.200;6.080;2024-03-02T09:45:09;100120.25;;;8.55;100.00
76434;BME280;65265;53.200;6.080;2024-03-02T09:50:01;100123.13;;;8.64;100.00
76434;BME280;65265;53.200;6.080;2024-03-02T09:54:54;100130.75;;;8.64;100.00
76434;BME280;65265;53.200;6.080;2024-03-02T09:59:45;100125.69;;;8.65;100.00
76434;BME280;65265;53.200;6.080;2024-03-02T10:04:37;100119.28;;;8.75;100.00
76434;BME280;65265;53.200;6.080;2024-03-02T10:09:30;100116.16;;;8.83;100.00
76434;BME280;65265;53.200;6.080;2024-03-02T10:14:21;100123.06;;;8.86;100.00
76434;BME280;65265;53.200;6.080;2024-03-02T10:19:17;100129.25;;;8.94;100.00
76434;BME280;65265;53.200;6.080;2024-03-02T10:24:09;100123.78;;;9.07;100.00
76434;BME280;65265;53.200;6.080;2024-03-02T10:29:02;100119.94;;;9.18;100.00
76434;BME280;65265;53.200;6.080;2024-03-02T10:33:54;100130.94;;;9.42;100.00
76434;BME280;65265;53.200;6.080;2024-03-02T10:38:46;100124.66;;;9.58;100.00
76434;BME280;65265;53.200;6.080;2024-03-02T10:43:38;100131.81;;;9.68;100.00
76434;BME280;65265;53.200;6.080;2024-03-02T10:48:32;100116.00;;;9.80;100.00
76434;BME280;65265;53.200;6.080;2024-03-02T10:53:26;100113.41;;;9.78;100.00
76434;BME280;65265;53.200;6.080;2024-03-02T10:58:18;100120.16;;;9.76;100.00
76434;BME280;65265;53.200;6.080;2024-03-02T11:03:11;100110.84;;;9.78;100.00
76434;BME280;65265;53.200;6.080;2024-03-02T11:08:06;100113.09;;;9.96;100.00
76434;BME280;65265;53.200;6.080;2024-03-02T11:13:00;100110.09;;;10.07;100.00
76434;BME280;65265;53.200;6.080;2024-03-02T11:17:53;100102.44;;;10.07;100.00
76434;BME280;65265;53.200;6.080;2024-03-02T11:22:45;100094.91;;;10.13;100.00
76434;BME280;65265;53.200;6.080;2024-03-02T11:28:00;100108.94;;;10.26;100.00
76434;BME280;65265;53.200;6.080;2024-03-02T11:32:55;100088.56;;;10.29;100.00
76434;BME280;65265;53.200;6.080;2024-03-02T11:37:46;100092.00;;;10.29;100.00
76434;BME280;65265;53.200;6.080;2024-03-02T11:42:38;100100.56;;;10.03;100.00
76434;BME280;65265;53.200;6.080;2024-03-02T11:47:32;100091.69;;;10.19;100.00
76434;BME280;65265;53.200;6.080;2024-03-02T11:52:25;100087.81;;;10.33;100.00
76434;BME280;65265;53.200;6.080;2024-03-02T11:57:19;100083.88;;;10.44;100.00
76434;BME280;65265;53.200;6.080;2024-03-02T12:02:15;100084.75;;;10.44;100.00
76434;BME280;65265;53.200;6.080;2024-03-02T12:07:09;100081.59;;;10.53;100.00
76434;BME280;65265;53.200;6.080;2024-03-02T12:12:04;100087.84;;;10.62;100.00
76434;BME280;65265;53.200;6.080;2024-03-02T12:16:56;100076.41;;;10.81;96.52
76434;BME280;65265;53.200;6.080;2024-03-02T12:21:48;100063.69;;;10.84;94.82
76434;BME280;65265;53.200;6.080;2024-03-02T12:26:42;100070.19;;;11.04;96.16
76434;BME280;65265;53.200;6.080;2024-03-02T12:31:34;100075.00;;;11.26;97.67
76434;BME280;65265;53.200;6.080;2024-03-02T12:36:26;100082.56;;;11.55;97.45
76434;BME280;65265;53.200;6.080;2024-03-02T12:41:17;100069.50;;;11.79;94.42
76434;BME280;65265;53.200;6.080;2024-03-02T12:46:10;100045.72;;;11.86;90.34
76434;BME280;65265;53.200;6.080;2024-03-02T12:51:02;100066.47;;;11.96;90.58
76434;BME280;65265;53.200;6.080;2024-03-02T12:55:53;100065.94;;;11.74;89.44
76434;BME280;65265;53.200;6.080;2024-03-02T13:00:46;100056.47;;;11.70;88.80
76434;BME280;65265;53.200;6.080;2024-03-02T13:05:39;100060.81;;;11.72;88.45
76434;BME280;65265;53.200;6.080;2024-03-02T13:10:30;100043.63;;;12.06;85.65
76434;BME280;65265;53.200;6.080;2024-03-02T13:15:22;100041.94;;;12.08;87.34
76434;BME280;65265;53.200;6.080;2024-03-02T13:20:14;100039.16;;;12.39;87.98
76434;BME280;65265;53.200;6.080;2024-03-02T13:25:09;100028.63;;;12.69;83.52
76434;BME280;65265;53.200;6.080;2024-03-02T13:30:01;100041.06;;;12.94;87.67
76434;BME280;65265;53.200;6.080;2024-03-02T13:34:53;100025.22;;;13.17;85.98
76434;BME280;65265;53.200;6.080;2024-03-02T13:39:44;100011.53;;;13.17;80.55
76434;BME280;65265;53.200;6.080;2024-03-02T13:44:37;100015.41;;;12.94;80.22
76434;BME280;65265;53.200;6.080;2024-03-02T13:49:29;100006.28;;;12.62;76.63
76434;BME280;65265;53.200;6.080;2024-03-02T13:54:26;100016.13;;;12.41;80.56
76434;BME280;65265;53.200;6.080;2024-03-02T13:59:17;100023.63;;;12.32;81.72
76434;BME280;65265;53.200;6.080;2024-03-02T14:04:10;100034.59;;;12.25;86.81
76434;BME280;65265;53.200;6.080;2024-03-02T14:09:02;100022.81;;;12.33;88.52
76434;BME280;65265;53.200;6.080;2024-03-02T14:13:54;100008.03;;;12.20;87.44
76434;BME280;65265;53.200;6.080;2024-03-02T14:18:47;100020.31;;;12.37;87.85
76434;BME280;65265;53.200;6.080;2024-03-02T14:23:40;100013.31;;;12.72;88.69
76434;BME280;65265;53.200;6.080;2024-03-02T14:28:32;100007.75;;;12.95;86.51
76434;BME280;65265;53.200;6.080;2024-03-02T14:33:24;100012.03;;;12.95;84.82
76434;BME280;65265;53.200;6.080;2024-03-02T14:38:15;100004.91;;;12.82;84.59
76434;BME280;65265;53.200;6.080;2024-03-02T14:43:08;100004.06;;;12.81;83.38
76434;BME280;65265;53.200;6.080;2024-03-02T14:47:59;100002.50;;;12.89;85.23
76434;BME280;65265;53.200;6.080;2024-03-02T14:52:51;99994.72;;;12.85;85.71
76434;BME280;65265;53.200;6.080;2024-03-02T14:57:43;99984.28;;;12.76;84.55
76434;BME280;65265;53.200;6.080;2024-03-02T15:02:36;99983.56;;;12.84;86.08
76434;BME280;65265;53.200;6.080;2024-03-02T15:07:28;99980.19;;;12.88;84.38
76434;BME280;65265;53.200;6.080;2024-03-02T15:12:19;99961.16;;;12.74;84.80
76434;BME280;65265;53.200;6.080;2024-03-02T15:17:12;99972.09;;;12.64;86.21
76434;BME280;65265;53.200;6.080;2024-03-02T15:22:06;99974.72;;;12.67;85.91
76434;BME280;65265;53.200;6.080;2024-03-02T15:26:58;99984.66;;;12.49;86.87
76434;BME280;65265;53.200;6.080;2024-03-02T15:31:50;99976.03;;;12.46;86.95
76434;BME280;65265;53.200;6.080;2024-03-02T15:36:42;99969.09;;;12.39;86.13
76434;BME280;65265;53.200;6.080;2024-03-02T15:41:35;99973.06;;;12.23;87.71
76434;BME280;65265;53.200;6.080;2024-03-02T15:46:27;99976.94;;;12.05;86.98
76434;BME280;65265;53.200;6.080;2024-03-02T15:51:18;99986.97;;;11.94;88.58
76434;BME280;65265;53.200;6.080;2024-03-02T15:56:10;99978.50;;;11.97;88.61
76434;BME280;65265;53.200;6.080;2024-03-02T16:01:04;99971.91;;;12.09;88.56
76434;BME280;65265;53.200;6.080;2024-03-02T16:05:55;99976.25;;;12.12;89.24
76434;BME280;65265;53.200;6.080;2024-03-02T16:10:47;99974.66;;;12.17;90.35
76434;BME280;65265;53.200;6.080;2024-03-02T16:15:38;99966.13;;;12.18;89.63
76434;BME280;65265;53.200;6.080;2024-03-02T16:20:31;99960.91;;;12.15;90.32
76434;BME280;65265;53.200;6.080;2024-03-02T16:25:23;99975.38;;;12.11;90.81
76434;BME280;65265;53.200;6.080;2024-03-02T16:30:16;99970.31;;;12.16;90.68
76434;BME280;65265;53.200;6.080;2024-03-02T16:35:08;99967.75;;;12.16;91.10
76434;BME280;65265;53.200;6.080;2024-03-02T16:40:01;99963.28;;;12.04;91.24
76434;BME280;65265;53.200;6.080;2024-03-02T16:44:53;99969.53;;;11.77;92.43
76434;BME280;65265;53.200;6.080;2024-03-02T16:49:45;99965.88;;;11.66;93.40
76434;BME280;65265;53.200;6.080;2024-03-02T16:54:37;99977.97;;;11.36;96.96
76434;BME280;65265;53.200;6.080;2024-03-02T16:59:30;99980.03;;;11.14;99.46
76434;BME280;65265;53.200;6.080;2024-03-02T17:04:21;99984.69;;;10.94;100.00
76434;BME280;65265;53.200;6.080;2024-03-02T17:09:13;99994.56;;;10.82;100.00
76434;BME280;65265;53.200;6.080;2024-03-02T17:14:04;100002.66;;;10.65;100.00
76434;BME280;65265;53.200;6.080;2024-03-02T17:18:59;100008.84;;;10.42;100.00
76434;BME280;65265;53.200;6.080;2024-03-02T17:23:51;100007.41;;;10.20;100.00
76434;BME280;65265;53.200;6.080;2024-03-02T17:28:43;100007.53;;;9.95;100.00
76434;BME280;65265;53.200;6.080;2024-03-02T17:33:35;100013.00;;;9.79;100.00
76434;BME280;65265;53.200;6.080;2024-03-02T17:38:28;100008.28;;;9.63;100.00
76434;BME280;65265;53.200;6.080;2024-03-02T17:43:20;100012.13;;;9.51;100.00
76434;BME280;65265;53.200;6.080;2024-03-02T17:48:11;100010.94;;;9.40;100.00
76434;BME280;65265;53.200;6.080;2024-03-02T17:53:03;100014.81;;;9.28;100.00
76434;BME280;65265;53.200;6.080;2024-03-02T17:57:56;100019.78;;;9.23;100.00
76434;BME280;65265;53.200;6.080;2024-03-02T18:02:47;100007.31;;;9.06;100.00
76434;BME280;65265;53.200;6.080;2024-03-02T18:07:39;100025.75;;;8.99;100.00
76434;BME280;65265;53.200;6.080;2024-03-02T18:12:31;100028.97;;;8.93;100.00
76434;BME280;65265;53.200;6.080;2024-03-02T18:17:24;100030.84;;;8.99;100.00
76434;BME280;65265;53.200;6.080;2024-03-02T18:22:15;100034.81;;;8.89;100.00
76434;BME280;65265;53.200;6.080;2024-03-02T18:27:07;100043.88;;;8.81;100.00
76434;BME280;65265;53.200;6.080;2024-03-02T18:31:58;100046.03;;;8.71;100.00
76434;BME280;65265;53.200;6.080;2024-03-02T18:36:51;100038.50;;;8.74;100.00
76434;BME280;65265;53.200;6.080;2024-03-02T18:41:43;100046.97;;;8.73;100.00
76434;BME280;65265;53.200;6.080;2024-03-02T18:46:34;100040.34;;;8.78;100.00
76434;BME280;65265;53.200;6.080;2024-03-02T18:51:26;100038.81;;;8.83;100.00
76434;BME280;65265;53.200;6.080;2024-03-02T18:56:19;100045.00;;;8.89;100.00
76434;BME280;65265;53.200;6.080;2024-03-02T19:01:10;100040.81;;;8.91;100.00
76434;BME280;65265;53.200;6.080;2024-03-02T19:06:02;100047.66;;;8.94;100.00
76434;BME280;65265;53.200;6.080;2024-03-02T19:10:54;100044.44;;;8.98;100.00
76434;BME280;65265;53.200;6.080;2024-03-02T19:15:46;100044.53;;;9.01;100.00
76434;BME280;65265;53.200;6.080;2024-03-02T19:20:38;100041.16;;;9.02;100.00
76434;BME280;65265;53.200;6.080;2024-03-02T19:25:29;100040.25;;;9.00;100.00
76434;BME280;65265;53.200;6.080;2024-03-02T19:30:21;100040.09;;;8.95;100.00
76434;BME280;65265;53.200;6.080;2024-03-02T19:35:14;100039.31;;;8.98;100.00
76434;BME280;65265;53.200;6.080;2024-03-02T19:40:06;100034.00;;;8.92;100.00
76434;BME280;65265;53.200;6.080;2024-03-02T19:44:58;100034.91;;;8.94;100.00
76434;BME280;65265;53.200;6.080;2024-03-02T19:49:49;100038.25;;;8.91;100.00
76434;BME280;65265;53.200;6.080;2024-03-02T19:54:42;100038.28;;;8.93;100.00
76434;BME280;65265;53.200;6.080;2024-03-02T19:59:34;100040.75;;;8.90;100.00
76434;BME280;65265;53.200;6.080;2024-03-02T20:04:26;100034.75;;;8.88;100.00
76434;BME280;65265;53.200;6.080;2024-03-02T20:09:17;100036.69;;;8.95;100.00
76434;BME280;65265;53.200;6.080;2024-03-02T20:14:10;100037.38;;;8.91;100.00
76434;BME280;65265;53.200;6.080;2024-03-02T20:19:04;100027.19;;;8.91;100.00
76434;BME280;65265;53.200;6.080;2024-03-02T20:23:56;100023.72;;;8.89;100.00
76434;BME280;65265;53.200;6.080;2024-03-02T20:28:49;100028.91;;;8.92;100.00
76434;BME280;65265;53.200;6.080;2024-03-02T20:33:46;100021.06;;;8.86;100.00
76434;BME280;65265;53.200;6.080;2024-03-02T20:38:39;100007.19;;;8.78;100.00
76434;BME280;65265;53.200;6.080;2024-03-02T20:43:32;100012.22;;;8.76;100.00
76434;BME280;65265;53.200;6.080;2024-03-02T20:48:27;100008.03;;;8.77;100.00
76434;BME280;65265;53.200;6.080;2024-03-02T20:53:22;100005.41;;;8.75;100.00
76434;BME280;65265;53.200;6.080;2024-03-02T20:58:14;99996.94;;;8.76;100.00
76434;BME280;65265;53.200;6.080;2024-03-02T21:03:07;99983.66;;;8.85;100.00
76434;BME280;65265;53.200;6.080;2024-03-02T21:08:00;99986.19;;;8.85;100.00
76434;BME280;65265;53.200;6.080;2024-03-02T21:12:55;99983.66;;;8.85;100.00
76434;BME280;65265;53.200;6.080;2024-03-02T21:17:49;99981.88;;;8.82;100.00
76434;BME280;65265;53.200;6.080;2024-03-02T21:22:43;99980.31;;;8.87;100.00
76434;BME280;65265;53.200;6.080;2024-03-02T21:27:43;99979.41;;;8.85;100.00
76434;BME280;65265;53.200;6.080;2024-03-02T21:32:39;99987.78;;;8.81;100.00
76434;BME280;65265;53.200;6.080;2024-03-02T21:37:32;99989.75;;;8.90;100.00
76434;BME280;65265;53.200;6.080;2024-03-02T21:42:24;99990.56;;;8.89;100.00
76434;BME280;65265;53.200;6.080;2024-03-02T21:47:17;99978.72;;;8.89;100.00
76434;BME280;65265;53.200;6.080;2024-03-02T21:52:12;99983.31;;;9.01;100.00
76434;BME280;65265;53.200;6.080;2024-03-02T21:57:05;99979.94;;;9.02;100.00
76434;BME280;65265;53.200;6.080;2024-03-02T22:02:01;99988.31;;;8.98;100.00
76434;BME280;65265;53.200;6.080;2024-03-02T22:06:54;99988.13;;;8.92;100.00
76434;BME280;65265;53.200;6.080;2024-03-02T22:11:50;99984.72;;;8.91;100.00
76434;BME280;65265;53.200;6.080;2024-03-02T22:16:43;99981.19;;;8.88;100.00
76434;BME280;65265;53.200;6.080;2024-03-02T22:21:36;99978.50;;;8.83;100.00
76434;BME280;65265;53.200;6.080;2024-03-02T22:26:28;99982.72;;;8.83;100.00
76434;BME280;65265;53.200;6.080;2024-03-02T22:31:24;99982.31;;;8.71;100.00
76434;BME280;65265;53.200;6.080;2024-03-02T22:36:17;100002.75;;;8.72;100.00
76434;BME280;65265;53.200;6.080;2024-03-02T22:41:10;100002.69;;;8.71;100.00
76434;BME280;65265;53.200;6.080;2024-03-02T22:46:03;99999.47;;;8.75;100.00
76434;BME280;65265;53.200;6.080;2024-03-02T22:50:57;99999.34;;;8.72;100.00
76434;BME280;65265;53.200;6.080;2024-03-02T22:55:51;99997.59;;;8.71;100.00
76434;BME280;65265;53.200;6.080;2024-03-02T23:00:44;99998.00;;;8.58;100.00
76434;BME280;65265;53.200;6.080;2024-03-02T23:05:39;99997.44;;;8.41;100.00
76434;BME280;65265;53.200;6.080;2024-03-02T23:10:33;100021.19;;;8.40;100.00
76434;BME280;65265;53.200;6.080;2024-03-02T23:15:27;100013.38;;;8.36;100.00
76434;BME280;65265;53.200;6.080;2024-03-02T23:20:22;100024.63;;;8.41;100.00
76434;BME280;65265;53.200;6.080;2024-03-02T23:25:15;100019.28;;;8.35;100.00
76434;BME280;65265;53.200;6.080;2024-03-02T23:30:10;100028.63;;;8.34;100.00
76434;BME280;65265;53.200;6.080;2024-03-02T23:35:04;100031.75;;;8.27;100.00
76434;BME280;65265;53.200;6.080;2024-03-02T23:39:56;100023.78;;;8.18;100.00
76434;BME280;65265;53.200;6.080;2024-03-02T23:45:09;100028.94;;;8.20;100.00
76434;BME280;65265;53.200;6.080;2024-03-02T23:50:05;100036.69;;;8.23;100.00
76434;BME280;65265;53.200;6.080;2024-03-02T23:55:00;100034.97;;;8.22;100.00
76434;BME280;65265;53.200;6.080;2024-03-02T23:59:52;100033.09;;;8.18;100.00
